Time;durP1;ratioP1;P1;durP2;ratioP2;P2;SDS_P1;SDS_P2;PMS_P1;PMS_P2;Temp;Humidity;BMP_temperature;BMP_pressure;BME280_temperature;BME280_humidity;BME280_pressure;Samples;Min_cycle;Max_cycle;Signal;HPM_P1;HPM_P2
2022/03/15 00:00:52;;;;;;;22.58;11.57;;;3.90;99.90;;;;;;4885908;29;20065;-45
2022/03/15 00:03:18;;;;;;;17.83;10.95;;;3.80;99.90;;;;;;4884819;29;20044;-44
2022/03/15 00:05:44;;;;;;;19.98;11.05;;;3.90;99.90;;;;;;4884688;29;20147;-45
2022/03/15 00:08:10;;;;;;;21.77;11.80;;;3.90;99.90;;;;;;4883497;29;20055;-44
2022/03/15 00:10:35;;;;;;;17.23;10.80;;;3.90;99.90;;;;;;4868280;29;20059;-44
2022/03/15 00:13:01;;;;;;;19.92;10.95;;;3.90;99.90;;;;;;4885384;29;20040;-44
2022/03/15 00:15:27;;;;;;;23.08;12.80;;;3.90;99.90;;;;;;4885419;29;20564;-46
2022/03/15 00:17:53;;;;;;;21.35;11.73;;;3.90;99.90;;;;;;4884650;29;20091;-47
2022/03/15 00:20:23;;;;;;;22.13;11.48;;;3.90;99.90;;;;;;4876997;29;20540;-44
2022/03/15 00:22:51;;;;;;;19.98;11.40;;;3.90;99.90;;;;;;4886488;29;20068;-47
2022/03/15 00:25:17;;;;;;;25.48;13.45;;;3.90;99.90;;;;;;4888463;29;20056;-43
2022/03/15 00:27:44;;;;;;;24.65;12.95;;;3.90;99.90;;;;;;4887264;29;20443;-45
2022/03/15 00:30:10;;;;;;;24.90;12.77;;;4.00;99.90;;;;;;4888535;29;20048;-45
2022/03/15 00:32:36;;;;;;;25.02;12.90;;;3.90;99.90;;;;;;4887615;29;20048;-45
2022/03/15 00:35:07;;;;;;;26.65;12.93;;;4.00;99.90;;;;;;4888037;29;20132;-45
2022/03/15 00:37:36;;;;;;;25.92;12.43;;;3.90;99.90;;;;;;4887466;29;20048;-44
2022/03/15 00:40:04;;;;;;;22.98;13.90;;;4.00;99.90;;;;;;4894957;29;20590;-44
2022/03/15 00:42:29;;;;;;;28.90;13.75;;;3.90;99.90;;;;;;4889575;29;20052;-45
2022/03/15 00:44:55;;;;;;;21.58;13.48;;;3.90;99.90;;;;;;4888475;29;20048;-44
2022/03/15 00:47:21;;;;;;;28.80;13.73;;;3.90;99.90;;;;;;4886743;29;20059;-44
2022/03/15 00:49:47;;;;;;;21.40;12.40;;;3.90;99.90;;;;;;4888336;29;20061;-45
2022/03/15 00:52:12;;;;;;;23.45;12.90;;;3.80;99.90;;;;;;4883617;29;20041;-44
2022/03/15 00:54:38;;;;;;;25.15;12.88;;;3.80;99.90;;;;;;4863712;29;20052;-46
2022/03/15 00:57:04;;;;;;;33.08;14.77;;;3.80;99.90;;;;;;4887705;29;20052;-43
2022/03/15 00:59:30;;;;;;;32.65;13.82;;;3.80;99.90;;;;;;4890474;29;20092;-44
2022/03/15 01:02:01;;;;;;;25.88;13.98;;;3.80;99.90;;;;;;4891584;29;20732;-46
2022/03/15 01:04:27;;;;;;;20.70;14.35;;;3.80;99.90;;;;;;4872771;29;20158;-46
2022/03/15 01:06:52;;;;;;;23.73;13.60;;;3.90;99.90;;;;;;4870431;29;20464;-48
2022/03/15 01:09:18;;;;;;;21.63;13.13;;;3.90;99.90;;;;;;4870727;29;20048;-44
2022/03/15 01:11:44;;;;;;;21.58;13.88;;;4.00;99.90;;;;;;4888682;29;20053;-46
2022/03/15 01:14:10;;;;;;;17.08;12.90;;;4.00;99.90;;;;;;4855769;29;20129;-45
2022/03/15 01:16:35;;;;;;;24.10;13.02;;;4.10;99.90;;;;;;4886585;29;20578;-45
2022/03/15 01:19:01;;;;;;;23.67;13.98;;;4.10;99.90;;;;;;4887634;29;20052;-45
2022/03/15 01:21:28;;;;;;;20.50;14.13;;;4.20;99.90;;;;;;4895631;29;20127;-45
2022/03/15 01:23:53;;;;;;;32.22;15.77;;;4.30;99.90;;;;;;4888468;29;20180;-45
2022/03/15 01:26:19;;;;;;;27.95;14.80;;;4.40;99.90;;;;;;4887165;29;20060;-45
2022/03/15 01:28:45;;;;;;;21.90;14.60;;;4.40;99.90;;;;;;4887459;29;20207;-46
2022/03/15 01:31:11;;;;;;;23.90;14.02;;;4.50;99.90;;;;;;4887518;29;20166;-44
2022/03/15 01:33:37;;;;;;;27.38;13.48;;;4.50;99.90;;;;;;4886908;29;20049;-44
2022/03/15 01:36:04;;;;;;;19.42;14.13;;;4.50;99.90;;;;;;4886680;29;20515;-44
2022/03/15 01:38:34;;;;;;;24.27;13.57;;;4.50;99.90;;;;;;4886834;29;20531;-44
2022/03/15 01:41:00;;;;;;;27.17;14.93;;;4.60;99.90;;;;;;4895218;29;20052;-44
2022/03/15 01:43:25;;;;;;;22.23;13.43;;;4.60;99.90;;;;;;4887985;29;20057;-46
2022/03/15 01:45:53;;;;;;;24.75;13.20;;;4.60;99.90;;;;;;4886265;29;20055;-44
2022/03/15 01:48:20;;;;;;;24.17;14.00;;;4.70;99.90;;;;;;4880381;29;20108;-45
2022/03/15 01:50:46;;;;;;;21.52;13.00;;;4.70;99.90;;;;;;4886395;29;20060;-45
2022/03/15 01:53:15;;;;;;;24.27;13.30;;;4.80;99.90;;;;;;4887547;29;20048;-46
2022/03/15 01:55:41;;;;;;;28.65;14.93;;;4.80;99.90;;;;;;4886768;29;20080;-43
2022/03/15 01:58:07;;;;;;;28.65;15.00;;;4.80;99.90;;;;;;4869760;29;20244;-47
2022/03/15 02:00:33;;;;;;;23.00;13.13;;;4.90;99.90;;;;;;4887416;29;20064;-45
2022/03/15 02:02:59;;;;;;;28.35;13.95;;;4.90;99.90;;;;;;4886805;29;20057;-45
2022/03/15 02:05:24;;;;;;;28.20;14.05;;;5.00;99.90;;;;;;4887178;29;20123;-45
2022/03/15 02:07:50;;;;;;;24.85;13.85;;;5.00;99.90;;;;;;4886898;29;20048;-45
2022/03/15 02:10:16;;;;;;;22.25;13.60;;;5.00;99.90;;;;;;4870926;29;20063;-48
2022/03/15 02:12:42;;;;;;;27.30;14.70;;;5.00;99.90;;;;;;4874273;29;20071;-46
2022/03/15 02:15:08;;;;;;;30.48;15.88;;;5.00;99.90;;;;;;4888492;29;20052;-46
2022/03/15 02:17:36;;;;;;;22.70;14.77;;;5.10;99.90;;;;;;4868870;29;20056;-43
2022/03/15 02:20:09;;;;;;;24.25;14.55;;;5.10;99.90;;;;;;4887121;29;20056;-45
2022/03/15 02:22:35;;;;;;;21.98;16.00;;;5.10;99.90;;;;;;4885737;29;20579;-44
2022/03/15 02:25:01;;;;;;;21.45;14.55;;;5.10;99.90;;;;;;4886290;29;20048;-44
2022/03/15 02:27:27;;;;;;;27.92;16.05;;;5.10;99.90;;;;;;4885085;29;20048;-45
2022/03/15 02:29:53;;;;;;;24.85;14.80;;;5.10;99.90;;;;;;4886666;29;20063;-44
2022/03/15 02:32:19;;;;;;;24.17;15.30;;;5.20;99.90;;;;;;4886243;29;20064;-45
2022/03/15 02:34:45;;;;;;;30.63;14.90;;;5.10;99.90;;;;;;4886906;29;20103;-44
2022/03/15 02:37:10;;;;;;;28.85;15.93;;;5.10;99.90;;;;;;4885908;29;20052;-44
2022/03/15 02:39:36;;;;;;;27.05;16.20;;;5.20;99.90;;;;;;4886304;29;20052;-44
2022/03/15 02:42:02;;;;;;;30.35;15.95;;;5.20;99.90;;;;;;4884788;29;20210;-45
2022/03/15 02:44:28;;;;;;;27.25;16.10;;;5.20;99.90;;;;;;4885775;29;20452;-44
2022/03/15 02:46:53;;;;;;;34.75;17.50;;;5.20;99.90;;;;;;4885375;29;20568;-43
2022/03/15 02:49:19;;;;;;;28.77;16.00;;;5.20;99.90;;;;;;4885525;29;20060;-45
2022/03/15 02:51:45;;;;;;;25.92;16.25;;;5.20;99.90;;;;;;4868950;29;20068;-45
2022/03/15 02:54:11;;;;;;;31.73;15.30;;;5.20;99.90;;;;;;4886071;29;20135;-43
2022/03/15 02:56:44;;;;;;;25.83;14.52;;;5.20;99.90;;;;;;4883566;29;20063;-45
2022/03/15 02:59:14;;;;;;;26.75;16.35;;;5.20;99.90;;;;;;4885527;29;20059;-44
2022/03/15 03:01:44;;;;;;;27.95;15.85;;;5.30;99.90;;;;;;4886012;29;20190;-45
2022/03/15 03:04:10;;;;;;;29.48;15.77;;;5.30;99.90;;;;;;4886494;29;20056;-45
2022/03/15 03:06:37;;;;;;;29.20;16.05;;;5.30;99.90;;;;;;4886240;29;20052;-45
2022/03/15 03:09:04;;;;;;;25.10;15.70;;;5.30;99.90;;;;;;4885450;29;20056;-45
2022/03/15 03:11:29;;;;;;;25.10;15.65;;;5.30;99.90;;;;;;4886216;29;20580;-46
2022/03/15 03:13:57;;;;;;;28.35;16.42;;;5.30;99.90;;;;;;4885765;29;20461;-45
2022/03/15 03:16:24;;;;;;;26.80;16.42;;;5.30;99.90;;;;;;4886166;29;20052;-45
2022/03/15 03:18:52;;;;;;;24.63;16.25;;;5.40;99.90;;;;;;4885602;29;20052;-43
2022/03/15 03:21:18;;;;;;;27.25;15.57;;;5.40;99.90;;;;;;4871466;29;20055;-45
2022/03/15 03:23:44;;;;;;;21.60;15.82;;;5.40;99.90;;;;;;4890294;29;20048;-47
2022/03/15 03:26:09;;;;;;;24.77;15.35;;;5.40;99.90;;;;;;4886326;29;20057;-48
2022/03/15 03:28:38;;;;;;;25.02;15.45;;;5.40;99.90;;;;;;4885950;29;20870;-45
2022/03/15 03:31:09;;;;;;;23.00;14.73;;;5.50;99.90;;;;;;4885206;29;20142;-46
2022/03/15 03:33:35;;;;;;;23.15;15.23;;;5.50;99.90;;;;;;4881473;29;20055;-48
2022/03/15 03:36:01;;;;;;;36.53;17.83;;;5.50;99.90;;;;;;4885484;29;20053;-44
2022/03/15 03:38:28;;;;;;;28.92;16.80;;;5.50;99.90;;;;;;4884414;29;20049;-44
2022/03/15 03:40:54;;;;;;;24.08;16.27;;;5.60;99.90;;;;;;4887045;29;20057;-43
2022/03/15 03:43:20;;;;;;;22.17;16.15;;;5.60;99.90;;;;;;4885246;29;20067;-47
2022/03/15 03:45:47;;;;;;;26.77;17.15;;;5.60;99.90;;;;;;4884657;29;20040;-44
2022/03/15 03:48:13;;;;;;;31.05;17.10;;;5.60;99.90;;;;;;4885368;29;20072;-45
2022/03/15 03:50:40;;;;;;;24.65;17.73;;;5.70;99.90;;;;;;4885559;29;20049;-45
2022/03/15 03:53:06;;;;;;;27.67;18.77;;;5.70;99.90;;;;;;4885211;29;20132;-44
2022/03/15 03:55:33;;;;;;;30.50;18.38;;;5.70;99.90;;;;;;4884435;29;20373;-45
2022/03/15 03:58:00;;;;;;;26.75;18.30;;;5.70;99.90;;;;;;4885498;29;20605;-45
2022/03/15 04:00:26;;;;;;;28.75;17.58;;;5.70;99.90;;;;;;4884630;29;20500;-44
2022/03/15 04:02:57;;;;;;;31.13;20.25;;;5.70;99.90;;;;;;4885718;29;20079;-44
2022/03/15 04:05:23;;;;;;;25.55;17.17;;;5.70;99.90;;;;;;4885144;29;20152;-45
2022/03/15 04:07:49;;;;;;;25.30;17.17;;;5.70;99.90;;;;;;4867917;29;20059;-44
2022/03/15 04:10:17;;;;;;;27.25;17.52;;;5.70;99.90;;;;;;4885749;29;20056;-46
2022/03/15 04:12:43;;;;;;;30.17;18.50;;;5.80;99.90;;;;;;4885636;29;20057;-44
2022/03/15 04:15:09;;;;;;;27.83;18.15;;;5.70;99.90;;;;;;4874891;29;20054;-44
2022/03/15 04:17:35;;;;;;;31.42;19.77;;;5.70;99.90;;;;;;4882903;29;20081;-46
2022/03/15 04:20:02;;;;;;;28.20;18.70;;;5.70;99.90;;;;;;4885344;29;20056;-44
2022/03/15 04:22:28;;;;;;;32.85;17.85;;;5.70;99.90;;;;;;4884774;29;20056;-46
2022/03/15 04:24:54;;;;;;;27.77;18.38;;;5.60;99.90;;;;;;4885141;29;20129;-44
2022/03/15 04:27:19;;;;;;;33.72;19.38;;;5.60;99.90;;;;;;4885079;29;20052;-46
2022/03/15 04:29:45;;;;;;;31.13;20.05;;;5.60;99.90;;;;;;4885750;29;20064;-46
2022/03/15 04:32:11;;;;;;;30.45;18.40;;;5.60;99.90;;;;;;4885063;29;20048;-42
2022/03/15 04:34:37;;;;;;;31.58;19.60;;;5.50;99.90;;;;;;4888843;29;20071;-46
2022/03/15 04:37:03;;;;;;;28.27;17.70;;;5.50;99.90;;;;;;4885427;29;20131;-49
2022/03/15 04:39:29;;;;;;;31.27;18.63;;;5.50;99.90;;;;;;4874467;29;20773;-44
2022/03/15 04:41:55;;;;;;;32.88;19.20;;;5.50;99.90;;;;;;4885162;29;20065;-45
2022/03/15 04:44:21;;;;;;;28.73;19.25;;;5.50;99.90;;;;;;4885362;29;20104;-47
2022/03/15 04:46:46;;;;;;;28.60;18.60;;;5.40;99.90;;;;;;4884289;29;20060;-45
2022/03/15 04:49:12;;;;;;;25.17;18.92;;;5.50;99.90;;;;;;4884666;29;20538;-45
2022/03/15 04:51:38;;;;;;;31.67;20.13;;;5.50;99.90;;;;;;4884351;29;20059;-47
2022/03/15 04:54:04;;;;;;;31.77;19.48;;;5.40;99.90;;;;;;4884118;29;20397;-45
2022/03/15 04:56:30;;;;;;;32.47;20.75;;;5.50;99.90;;;;;;4883612;29;20064;-44
2022/03/15 04:58:55;;;;;;;33.20;20.05;;;5.40;99.90;;;;;;4884417;29;20095;-47
2022/03/15 05:01:21;;;;;;;36.08;20.90;;;5.40;99.90;;;;;;4884682;29;20064;-44
2022/03/15 05:03:47;;;;;;;32.90;20.10;;;5.30;99.90;;;;;;4883098;29;20056;-46
2022/03/15 05:06:12;;;;;;;30.23;19.52;;;5.30;99.90;;;;;;4883782;29;20060;-44
2022/03/15 05:08:38;;;;;;;33.03;21.00;;;5.30;99.90;;;;;;4887295;29;20053;-44
2022/03/15 05:11:07;;;;;;;37.35;20.30;;;5.30;99.90;;;;;;4888751;29;20172;-45
2022/03/15 05:13:37;;;;;;;36.42;20.50;;;5.30;99.90;;;;;;4884104;29;20060;-45
2022/03/15 05:16:03;;;;;;;30.40;19.02;;;5.20;99.90;;;;;;4886800;29;20440;-46
2022/03/15 05:18:29;;;;;;;34.50;20.30;;;5.20;99.90;;;;;;4886598;29;20520;-45
2022/03/15 05:20:55;;;;;;;34.30;21.38;;;5.30;99.90;;;;;;4887464;29;20068;-43
2022/03/15 05:23:21;;;;;;;36.00;19.05;;;5.20;99.90;;;;;;4888809;29;20055;-44
2022/03/15 05:25:46;;;;;;;28.98;19.90;;;5.20;99.90;;;;;;4886095;29;20057;-44
2022/03/15 05:28:12;;;;;;;33.30;21.05;;;5.20;99.90;;;;;;4887647;29;20048;-45
2022/03/15 05:30:38;;;;;;;34.40;22.17;;;5.20;99.90;;;;;;4886182;29;20064;-45
2022/03/15 05:33:04;;;;;;;31.10;22.35;;;5.20;99.90;;;;;;4888353;29;20135;-45
2022/03/15 05:35:30;;;;;;;32.65;20.85;;;5.20;99.90;;;;;;4887334;29;20111;-46
2022/03/15 05:37:56;;;;;;;35.25;22.60;;;5.10;99.90;;;;;;4887594;29;20052;-46
2022/03/15 05:40:22;;;;;;;34.50;21.00;;;5.10;99.90;;;;;;4887761;29;20825;-45
2022/03/15 05:42:48;;;;;;;30.85;21.05;;;5.20;99.90;;;;;;4887716;29;20563;-46
2022/03/15 05:45:14;;;;;;;32.20;21.40;;;5.10;99.90;;;;;;4887818;29;20059;-45
2022/03/15 05:47:41;;;;;;;29.75;21.50;;;5.10;99.90;;;;;;4890331;29;20091;-45
2022/03/15 05:50:07;;;;;;;35.53;21.15;;;5.10;99.90;;;;;;4887717;29;20055;-44
2022/03/15 05:52:32;;;;;;;30.85;21.00;;;5.10;99.90;;;;;;4887480;29;20048;-46
2022/03/15 05:55:02;;;;;;;37.63;22.17;;;5.10;99.90;;;;;;4886361;29;20524;-45
2022/03/15 05:57:28;;;;;;;32.15;20.35;;;5.10;99.90;;;;;;4887417;29;20157;-49
2022/03/15 05:59:53;;;;;;;36.88;23.90;;;5.10;99.90;;;;;;4887140;29;20610;-44
2022/03/15 06:02:19;;;;;;;39.20;22.50;;;5.00;99.90;;;;;;4870853;29;20060;-44
2022/03/15 06:04:45;;;;;;;36.95;22.33;;;5.10;99.90;;;;;;4887920;29;20052;-45
2022/03/15 06:07:11;;;;;;;37.80;23.98;;;5.00;99.90;;;;;;4868446;29;20056;-45
2022/03/15 06:09:37;;;;;;;35.28;20.63;;;5.00;99.90;;;;;;4870137;29;20092;-46
2022/03/15 06:12:03;;;;;;;35.22;22.92;;;5.00;99.90;;;;;;4870927;29;20060;-45
2022/03/15 06:14:29;;;;;;;34.22;22.77;;;5.10;99.90;;;;;;4887661;29;20088;-45
2022/03/15 06:16:54;;;;;;;40.78;22.08;;;5.10;99.90;;;;;;4886400;29;20456;-44
2022/03/15 06:19:20;;;;;;;37.88;23.00;;;5.10;99.90;;;;;;4886398;29;20539;-44
2022/03/15 06:21:46;;;;;;;31.38;22.08;;;5.20;99.90;;;;;;4887308;29;20048;-45
2022/03/15 06:24:12;;;;;;;31.13;21.45;;;5.20;99.90;;;;;;4887507;29;20048;-45
2022/03/15 06:26:38;;;;;;;35.28;23.20;;;5.20;99.90;;;;;;4886596;29;20503;-44
2022/03/15 06:29:04;;;;;;;36.30;23.10;;;5.30;99.90;;;;;;4886060;29;20459;-43
2022/03/15 06:31:32;;;;;;;35.08;21.63;;;5.30;99.90;;;;;;4887554;29;20155;-44
2022/03/15 06:34:00;;;;;;;32.08;19.63;;;5.40;99.90;;;;;;4887369;29;20171;-45
2022/03/15 06:36:26;;;;;;;34.25;20.60;;;5.40;99.90;;;;;;4887661;29;20323;-44
2022/03/15 06:38:53;;;;;;;36.33;22.13;;;5.50;99.90;;;;;;4888069;29;20505;-43
2022/03/15 06:41:19;;;;;;;34.97;20.92;;;5.60;99.90;;;;;;4888277;29;20217;-44
2022/03/15 06:43:45;;;;;;;31.48;21.48;;;5.60;99.90;;;;;;4887728;29;20096;-45
2022/03/15 06:46:11;;;;;;;32.92;20.50;;;5.60;99.90;;;;;;4887709;29;20143;-44
2022/03/15 06:48:37;;;;;;;32.38;21.63;;;5.70;99.90;;;;;;4877715;29;20064;-45
2022/03/15 06:51:04;;;;;;;31.90;20.10;;;5.80;99.90;;;;;;4887405;29;20059;-44
2022/03/15 06:53:30;;;;;;;35.00;21.52;;;5.80;99.90;;;;;;4875469;29;20053;-46
2022/03/15 06:55:56;;;;;;;33.60;20.20;;;5.90;99.90;;;;;;4888438;29;20087;-45
2022/03/15 06:58:22;;;;;;;27.67;19.60;;;5.90;99.90;;;;;;4902036;29;20048;-45
2022/03/15 07:00:47;;;;;;;30.23;20.75;;;5.90;99.90;;;;;;4887858;29;20419;-50
2022/03/15 07:03:14;;;;;;;27.48;20.35;;;6.00;99.90;;;;;;4868315;29;20114;-46
2022/03/15 07:05:41;;;;;;;28.05;20.27;;;6.00;99.90;;;;;;4886733;29;20048;-45
2022/03/15 07:08:07;;;;;;;33.50;20.45;;;6.10;99.90;;;;;;4885662;29;20083;-46
2022/03/15 07:10:33;;;;;;;37.88;21.00;;;6.10;99.90;;;;;;4886390;29;20053;-46
2022/03/15 07:13:00;;;;;;;31.35;21.38;;;6.10;99.90;;;;;;4884238;29;20068;-45
2022/03/15 07:15:26;;;;;;;37.13;20.98;;;6.20;99.90;;;;;;4884553;29;20052;-44
2022/03/15 07:17:54;;;;;;;29.75;20.40;;;6.20;99.90;;;;;;4886062;29;20049;-44
2022/03/15 07:20:21;;;;;;;32.25;20.05;;;6.20;99.90;;;;;;4888932;29;20063;-43
2022/03/15 07:22:47;;;;;;;32.38;20.50;;;6.30;99.90;;;;;;4874192;29;20060;-44
2022/03/15 07:25:13;;;;;;;35.40;22.35;;;6.30;99.90;;;;;;4892459;29;20119;-46
2022/03/15 07:27:39;;;;;;;35.75;22.35;;;6.40;99.90;;;;;;4886197;29;20177;-46
2022/03/15 07:30:07;;;;;;;35.38;23.40;;;6.40;99.90;;;;;;4886658;29;20049;-44
2022/03/15 07:32:33;;;;;;;41.20;24.15;;;6.40;99.90;;;;;;4885755;29;20048;-45
2022/03/15 07:34:59;;;;;;;39.38;24.50;;;6.50;99.90;;;;;;4862731;29;20059;-48
2022/03/15 07:37:24;;;;;;;34.65;23.63;;;6.50;99.90;;;;;;4885876;29;20056;-45
2022/03/15 07:39:50;;;;;;;34.55;22.92;;;6.60;99.90;;;;;;4885461;29;20173;-46
2022/03/15 07:42:16;;;;;;;45.17;27.38;;;6.60;99.90;;;;;;4883567;29;20051;-46
2022/03/15 07:44:45;;;;;;;36.95;26.63;;;6.60;99.90;;;;;;4885152;29;20045;-47
2022/03/15 07:47:14;;;;;;;41.90;26.08;;;6.70;99.90;;;;;;4885543;29;20286;-46
2022/03/15 07:49:40;;;;;;;45.10;27.55;;;6.70;99.90;;;;;;4886614;29;20048;-45
2022/03/15 07:52:07;;;;;;;43.40;27.85;;;6.80;99.90;;;;;;4885417;29;20092;-45
2022/03/15 07:54:34;;;;;;;41.28;27.35;;;6.80;99.90;;;;;;4884966;29;20131;-44
2022/03/15 07:56:59;;;;;;;43.33;28.10;;;6.90;99.90;;;;;;4887164;29;20646;-45
2022/03/15 07:59:25;;;;;;;37.58;27.67;;;6.90;99.90;;;;;;4887483;29;20954;-45
2022/03/15 08:01:52;;;;;;;44.92;30.60;;;6.90;99.90;;;;;;4886784;29;20064;-44
2022/03/15 08:04:18;;;;;;;40.25;28.05;;;7.00;99.90;;;;;;4886141;29;20068;-45
2022/03/15 08:06:44;;;;;;;41.10;29.50;;;7.10;99.90;;;;;;4885355;29;20131;-45
2022/03/15 08:09:11;;;;;;;44.05;28.27;;;7.10;99.90;;;;;;4889760;29;20088;-46
2022/03/15 08:11:36;;;;;;;40.92;27.40;;;7.20;99.90;;;;;;4886311;29;20045;-47
2022/03/15 08:14:03;;;;;;;40.83;27.95;;;7.30;99.90;;;;;;4877439;29;20060;-45
2022/03/15 08:16:28;;;;;;;38.58;29.67;;;7.30;99.90;;;;;;4884639;29;20064;-47
2022/03/15 08:18:54;;;;;;;38.28;28.95;;;7.40;99.90;;;;;;4885814;29;20476;-46
2022/03/15 08:21:22;;;;;;;42.47;29.42;;;7.50;99.90;;;;;;4878687;29;20060;-45
2022/03/15 08:23:48;;;;;;;41.17;32.30;;;7.50;99.90;;;;;;4885642;29;20045;-46
2022/03/15 08:26:15;;;;;;;40.20;28.33;;;7.60;99.90;;;;;;4869786;29;20111;-45
2022/03/15 08:28:45;;;;;;;43.15;31.30;;;7.60;99.90;;;;;;4884550;29;20136;-47
2022/03/15 08:31:11;;;;;;;42.60;29.80;;;7.70;99.90;;;;;;4880798;29;20105;-47
2022/03/15 08:33:37;;;;;;;45.95;30.98;;;7.70;99.90;;;;;;4880839;29;20074;-45
2022/03/15 08:36:03;;;;;;;44.45;31.95;;;7.70;99.90;;;;;;4884592;29;20099;-46
2022/03/15 08:38:29;;;;;;;39.42;30.67;;;7.70;99.90;;;;;;4867989;29;20052;-45
2022/03/15 08:40:55;;;;;;;41.53;32.45;;;7.70;99.90;;;;;;4884456;29;20140;-45
2022/03/15 08:43:21;;;;;;;45.10;32.78;;;7.70;99.90;;;;;;4887960;29;20232;-46
2022/03/15 08:45:48;;;;;;;41.65;32.22;;;7.80;99.90;;;;;;4871527;29;20194;-44
2022/03/15 08:48:13;;;;;;;38.05;30.98;;;7.80;99.90;;;;;;4888102;29;20124;-45
2022/03/15 08:50:39;;;;;;;41.92;31.00;;;7.90;99.90;;;;;;4888937;29;20057;-45
2022/03/15 08:53:05;;;;;;;43.80;32.78;;;7.90;99.90;;;;;;4886464;29;20123;-45
2022/03/15 08:55:31;;;;;;;47.10;33.83;;;7.90;99.90;;;;;;4887205;29;20104;-45
2022/03/15 08:57:57;;;;;;;40.25;32.75;;;7.90;99.90;;;;;;4888196;29;20049;-46
2022/03/15 09:00:23;;;;;;;41.58;34.17;;;8.00;99.90;;;;;;4888515;29;20055;-45
2022/03/15 09:02:50;;;;;;;47.95;35.90;;;8.00;99.90;;;;;;4888840;29;20045;-47
2022/03/15 09:05:19;;;;;;;49.40;37.53;;;8.00;99.90;;;;;;4886173;29;20075;-43
2022/03/15 09:07:51;;;;;;;41.30;30.80;;;8.00;99.90;;;;;;4887098;29;20053;-46
2022/03/15 09:10:18;;;;;;;40.33;31.60;;;8.00;99.90;;;;;;4885340;29;20052;-46
2022/03/15 09:12:44;;;;;;;47.22;33.22;;;8.00;99.90;;;;;;4890235;29;20186;-44
2022/03/15 09:15:10;;;;;;;41.70;31.88;;;8.10;99.90;;;;;;4887776;29;20452;-45
2022/03/15 09:17:36;;;;;;;37.75;30.67;;;8.10;99.90;;;;;;4888922;29;20052;-45
2022/03/15 09:20:03;;;;;;;41.67;32.33;;;8.10;99.90;;;;;;4888660;29;20075;-48
2022/03/15 09:22:28;;;;;;;43.20;30.75;;;8.20;99.90;;;;;;4893000;29;20067;-46
2022/03/15 09:24:54;;;;;;;42.13;31.08;;;8.20;99.90;;;;;;4873084;29;20052;-46
2022/03/15 09:27:20;;;;;;;39.75;30.20;;;8.30;99.90;;;;;;4890373;29;20104;-48
2022/03/15 09:29:46;;;;;;;40.63;29.80;;;8.40;99.90;;;;;;4871262;29;20053;-46
2022/03/15 09:32:12;;;;;;;36.15;29.05;;;8.50;99.90;;;;;;4888000;29;20358;-43
2022/03/15 09:34:38;;;;;;;35.05;28.65;;;8.60;99.90;;;;;;4888526;29;20140;-46
2022/03/15 09:37:09;;;;;;;36.10;29.77;;;8.60;99.90;;;;;;4888424;29;20081;-46
2022/03/15 09:39:35;;;;;;;38.30;30.45;;;8.70;99.90;;;;;;4889615;29;20063;-44
2022/03/15 09:42:07;;;;;;;44.15;31.13;;;8.70;99.90;;;;;;4887956;29;20045;-46
2022/03/15 09:44:35;;;;;;;35.65;29.52;;;8.70;99.90;;;;;;4887724;29;20052;-45
2022/03/15 09:47:03;;;;;;;37.42;29.75;;;8.60;99.90;;;;;;4886423;29;20135;-45
2022/03/15 09:49:31;;;;;;;39.90;30.67;;;8.60;99.90;;;;;;4888071;29;20056;-45
2022/03/15 09:51:57;;;;;;;36.30;32.20;;;8.60;99.90;;;;;;4885025;29;20124;-45
2022/03/15 09:54:27;;;;;;;38.22;31.27;;;8.50;99.90;;;;;;4879832;29;20411;-46
2022/03/15 09:56:53;;;;;;;38.05;32.15;;;8.50;99.90;;;;;;4886297;29;20132;-48
2022/03/15 09:59:24;;;;;;;38.45;30.58;;;8.50;99.90;;;;;;4888587;29;20166;-45
2022/03/15 10:01:51;;;;;;;43.38;32.65;;;8.40;99.90;;;;;;4887126;29;20056;-45
2022/03/15 10:04:19;;;;;;;45.10;33.80;;;8.30;99.90;;;;;;4888111;29;20062;-46
2022/03/15 10:06:45;;;;;;;41.45;31.80;;;8.20;99.90;;;;;;4886400;29;20072;-45
2022/03/15 10:09:11;;;;;;;48.90;34.80;;;8.10;99.90;;;;;;4888111;29;20036;-44
2022/03/15 10:11:37;;;;;;;47.88;33.90;;;8.10;99.90;;;;;;4886721;29;20059;-47
2022/03/15 10:14:04;;;;;;;48.47;35.30;;;8.00;99.90;;;;;;4886263;29;20405;-48
2022/03/15 10:16:41;;;;;;;47.53;34.55;;;7.90;99.90;;;;;;4886523;29;20472;-45
2022/03/15 10:19:12;;;;;;;45.08;34.42;;;7.90;99.90;;;;;;4887056;29;20404;-45
2022/03/15 10:21:49;;;;;;;46.75;35.13;;;7.90;99.90;;;;;;4889116;29;20512;-46
2022/03/15 10:24:22;;;;;;;49.38;35.97;;;7.90;99.90;;;;;;4888357;29;20563;-45
2022/03/15 10:26:50;;;;;;;46.15;35.15;;;8.00;99.90;;;;;;4887392;29;20092;-47
2022/03/15 10:29:17;;;;;;;44.65;35.03;;;8.00;99.90;;;;;;4888130;29;20059;-46
2022/03/15 10:31:44;;;;;;;49.55;36.83;;;7.90;99.90;;;;;;4871940;29;20056;-45
2022/03/15 10:34:11;;;;;;;47.65;35.28;;;7.90;99.90;;;;;;4872676;29;20083;-46
2022/03/15 10:36:47;;;;;;;46.70;37.22;;;7.90;99.90;;;;;;4873577;29;20067;-47
2022/03/15 10:39:15;;;;;;;42.40;34.10;;;7.90;99.90;;;;;;4886470;29;20086;-45
2022/03/15 10:41:54;;;;;;;45.90;33.03;;;8.00;99.90;;;;;;4887705;29;20064;-47
2022/03/15 10:44:34;;;;;;;42.22;33.28;;;8.00;99.90;;;;;;4870377;29;20061;-47
2022/03/15 10:47:13;;;;;;;40.42;32.72;;;8.10;99.90;;;;;;4887264;29;20564;-45
2022/03/15 10:49:55;;;;;;;39.10;31.17;;;8.20;99.90;;;;;;4887391;29;20324;-45
2022/03/15 10:52:34;;;;;;;41.53;30.73;;;8.20;99.90;;;;;;4871000;29;20068;-45
2022/03/15 10:55:28;;;;;;;35.90;29.58;;;8.30;99.90;;;;;;4888447;29;20048;-45
2022/03/15 10:58:15;;;;;;;38.42;30.00;;;8.50;99.90;;;;;;4886796;29;20064;-43
2022/03/15 11:00:43;;;;;;;34.60;30.70;;;8.70;99.90;;;;;;4886975;29;20055;-44
2022/03/15 11:03:13;;;;;;;37.00;31.27;;;8.90;99.90;;;;;;4886765;29;20104;-45
2022/03/15 11:05:41;;;;;;;46.55;35.22;;;9.20;99.90;;;;;;4885474;29;20064;-47
2022/03/15 11:08:15;;;;;;;43.03;31.40;;;9.30;99.90;;;;;;4885440;29;20722;-47
2022/03/15 11:10:50;;;;;;;38.45;30.15;;;9.60;99.90;;;;;;4886276;29;20516;-46
2022/03/15 11:13:17;;;;;;;39.45;31.67;;;9.70;99.90;;;;;;4886447;29;20088;-46
2022/03/15 11:15:48;;;;;;;40.08;33.85;;;10.00;99.90;;;;;;4885449;29;20083;-45
2022/03/15 11:18:16;;;;;;;37.08;29.00;;;10.20;99.90;;;;;;4884362;29;20469;-46
2022/03/15 11:20:44;;;;;;;37.13;30.02;;;10.30;99.90;;;;;;4886048;29;20047;-46
2022/03/15 11:23:14;;;;;;;36.22;30.10;;;10.60;99.90;;;;;;4886290;29;20515;-45
2022/03/15 11:25:48;;;;;;;35.92;29.65;;;10.70;99.90;;;;;;4881687;29;20615;-45
2022/03/15 11:28:16;;;;;;;33.40;25.58;;;10.80;99.90;;;;;;4886659;29;20547;-47
2022/03/15 11:30:42;;;;;;;32.72;25.55;;;11.00;99.90;;;;;;4883220;29;20049;-47
2022/03/15 11:33:10;;;;;;;33.58;25.25;;;11.00;99.90;;;;;;4870706;29;20109;-46
2022/03/15 11:35:38;;;;;;;36.40;25.92;;;11.10;99.90;;;;;;4868693;29;20175;-46
2022/03/15 11:38:09;;;;;;;23.40;20.02;;;11.10;99.90;;;;;;4886456;29;20167;-46
2022/03/15 11:40:35;;;;;;;28.25;21.98;;;11.20;99.90;;;;;;4885958;29;20514;-46
2022/03/15 11:43:40;;;;;;;29.35;22.88;;;11.20;99.90;;;;;;4886007;29;20064;-45
2022/03/15 11:46:22;;;;;;;27.58;21.67;;;11.20;99.90;;;;;;4886280;29;20052;-47
2022/03/15 11:49:15;;;;;;;28.85;22.25;;;11.30;99.90;;;;;;4884766;29;20063;-46
2022/03/15 11:51:46;;;;;;;;;;;11.20;99.90;;;;;;4889291;29;20143;-46
2022/03/15 11:54:30;;;;;;;24.58;19.52;;;11.20;99.90;;;;;;4876568;29;19927;-48
2022/03/15 11:56:59;;;;;;;26.60;18.58;;;11.30;99.90;;;;;;4885230;29;20549;-46
2022/03/15 11:59:25;;;;;;;27.50;21.50;;;11.40;99.90;;;;;;4886714;29;20199;-45
2022/03/15 12:02:01;;;;;;;25.52;20.15;;;11.40;99.90;;;;;;4886486;29;20085;-46
2022/03/15 12:04:30;;;;;;;25.13;19.17;;;11.60;99.90;;;;;;4885637;29;20230;-45
2022/03/15 12:06:59;;;;;;;20.63;17.23;;;11.70;99.90;;;;;;4884858;29;20088;-45
2022/03/15 12:09:30;;;;;;;24.83;18.17;;;11.80;99.90;;;;;;4885640;29;20088;-47
2022/03/15 12:12:07;;;;;;;22.80;18.58;;;11.90;99.90;;;;;;4885356;29;20059;-46
2022/03/15 12:14:39;;;;;;;24.65;17.10;;;12.00;99.90;;;;;;4885001;29;20056;-47
2022/03/15 12:17:06;;;;;;;20.48;16.70;;;12.10;99.90;;;;;;4886585;29;20047;-47
2022/03/15 12:19:41;;;;;;;20.77;15.75;;;12.00;99.90;;;;;;4889031;29;20496;-47
2022/03/15 12:22:11;;;;;;;20.13;16.00;;;12.10;99.90;;;;;;4880341;29;20060;-47
2022/03/15 12:24:45;;;;;;;18.48;13.23;;;12.10;99.90;;;;;;4888757;29;20147;-48
2022/03/15 12:27:19;;;;;;;13.32;9.68;;;12.10;99.90;;;;;;4889060;29;20095;-46
2022/03/15 12:29:55;;;;;;;17.80;12.65;;;12.10;99.90;;;;;;4889167;29;20048;-47
2022/03/15 12:32:22;;;;;;;17.45;12.90;;;12.00;99.90;;;;;;4888205;29;20422;-46
2022/03/15 12:34:52;;;;;;;22.42;15.32;;;12.00;99.90;;;;;;4889516;29;20049;-46
2022/03/15 12:37:33;;;;;;;27.85;17.92;;;11.90;99.90;;;;;;4871728;29;20053;-46